createdAt,value
2023-04-27T00:02:08.046Z,100354.59
2023-04-27T00:04:54.557Z,100349.31
2023-04-27T00:07:41.298Z,100307.69
2023-04-27T00:10:27.666Z,100345.75
2023-04-27T00:13:13.396Z,100347.38
2023-04-27T00:16:03.450Z,100291.28
2023-04-27T00:18:49.279Z,100304.19
2023-04-27T00:21:36.121Z,100348.22
2023-04-27T00:24:21.883Z,100351.75
2023-04-27T00:27:08.360Z,100346.06
2023-04-27T00:29:54.464Z,100321.72
2023-04-27T00:32:42.438Z,100345.75
2023-04-27T00:35:28.439Z,100344.75
2023-04-27T00:38:14.877Z,100347.81
2023-04-27T00:41:04.045Z,100351.16
2023-04-27T00:43:50.115Z,100350.63
2023-04-27T00:46:36.790Z,100361.00
2023-04-27T00:49:23.857Z,100355.00
2023-04-27T00:52:09.942Z,100338.66
2023-04-27T00:54:57.764Z,100364.84
2023-04-27T00:57:43.861Z,100365.34
2023-04-27T01:00:30.380Z,100356.13
2023-04-27T01:03:17.128Z,100340.69
2023-04-27T01:06:04.125Z,100360.88
2023-04-27T01:08:50.327Z,100363.91
2023-04-27T01:11:36.555Z,100327.09
2023-04-27T01:14:22.655Z,100359.88
2023-04-27T01:17:11.026Z,100368.28
2023-04-27T01:19:57.906Z,100359.88
2023-04-27T01:22:44.099Z,100335.81
2023-04-27T01:25:29.842Z,100369.41
2023-04-27T01:28:16.280Z,100310.34
2023-04-27T01:31:01.956Z,100373.06
2023-04-27T01:33:48.383Z,100315.31
2023-04-27T01:36:34.436Z,100337.94
2023-04-27T01:39:20.777Z,100372.97
2023-04-27T01:42:07.087Z,100368.28
2023-04-27T01:44:54.613Z,100336.41
2023-04-27T01:47:41.624Z,100369.91
2023-04-27T01:50:28.535Z,100370.50
2023-04-27T01:53:14.626Z,100350.22
2023-04-27T01:56:00.908Z,100375.09
2023-04-27T01:58:47.116Z,100370.22
2023-04-27T02:01:33.382Z,100375.59
2023-04-27T02:04:19.766Z,100381.59
2023-04-27T02:07:06.628Z,100352.56
2023-04-27T02:09:54.407Z,100385.44
2023-04-27T02:12:40.701Z,100382.09
2023-04-27T02:15:27.285Z,100380.66
2023-04-27T02:18:15.823Z,100367.47
2023-04-27T02:21:01.912Z,100385.34
2023-04-27T02:23:48.094Z,100381.19
2023-04-27T02:26:33.953Z,100393.44
2023-04-27T02:29:20.531Z,100386.56
2023-04-27T02:32:07.139Z,100380.84
2023-04-27T02:34:53.155Z,100366.97
2023-04-27T02:37:38.762Z,100385.94
2023-04-27T02:40:24.539Z,100382.47
2023-04-27T02:43:10.741Z,100387.13
2023-04-27T02:45:57.448Z,100361.84
2023-04-27T02:48:43.492Z,100393.72
2023-04-27T02:51:29.524Z,100391.72
2023-04-27T02:54:15.281Z,100387.78
2023-04-27T02:57:02.419Z,100390.50
2023-04-27T02:59:48.626Z,100372.31
2023-04-27T03:02:35.323Z,100398.81
2023-04-27T03:05:21.431Z,100394.16
2023-04-27T03:08:07.790Z,100400.03
2023-04-27T03:10:54.763Z,100404.91
2023-04-27T03:13:43.539Z,100399.94
2023-04-27T03:16:32.226Z,100361.06
2023-04-27T03:19:18.729Z,100407.88
2023-04-27T03:22:04.266Z,100397.81
2023-04-27T03:24:50.436Z,100408.84
2023-04-27T03:27:36.779Z,100420.22
2023-04-27T03:30:23.076Z,100397.28
2023-04-27T03:33:09.299Z,100402.97
2023-04-27T03:35:59.184Z,100426.63
2023-04-27T03:38:44.866Z,100397.66
2023-04-27T03:41:31.061Z,100429.13
2023-04-27T03:44:17.131Z,100431.59
2023-04-27T03:47:03.777Z,100427.00
2023-04-27T03:49:50.192Z,100400.41
2023-04-27T03:52:36.298Z,100421.84
2023-04-27T03:55:23.559Z,100414.69
2023-04-27T03:58:10.850Z,100440.41
2023-04-27T04:01:03.875Z,100443.53
2023-04-27T04:03:50.733Z,100421.28
2023-04-27T04:06:37.432Z,100453.00
2023-04-27T04:09:24.117Z,100409.31
2023-04-27T04:12:10.178Z,100456.75
2023-04-27T04:14:56.699Z,100452.28
2023-04-27T04:17:42.633Z,100433.59
2023-04-27T04:20:29.114Z,100456.34
2023-04-27T04:23:14.701Z,100412.56
2023-04-27T04:26:02.290Z,100458.28
2023-04-27T04:28:52.533Z,100469.06
2023-04-27T04:31:39.484Z,100475.03
2023-04-27T04:34:25.431Z,100476.78
2023-04-27T04:37:11.927Z,100471.75
2023-04-27T04:39:58.100Z,100483.72
2023-04-27T04:42:45.000Z,100481.59
2023-04-27T04:45:31.224Z,100472.97
2023-04-27T04:48:17.863Z,100449.94
2023-04-27T04:51:08.424Z,100477.94
2023-04-27T04:53:55.024Z,100480.81
2023-04-27T04:56:42.651Z,100481.63
2023-04-27T04:59:33.607Z,100467.50
2023-04-27T05:02:19.510Z,100437.63
2023-04-27T05:05:06.047Z,100484.63
2023-04-27T05:07:51.998Z,100460.56
2023-04-27T05:10:37.968Z,100480.81
2023-04-27T05:13:24.947Z,100465.09
2023-04-27T05:16:11.180Z,100488.69
2023-04-27T05:18:57.128Z,100494.91
2023-04-27T05:21:43.261Z,100488.41
2023-04-27T05:24:28.900Z,100497.28
2023-04-27T05:27:15.082Z,100488.72
2023-04-27T05:30:01.099Z,100504.22
2023-04-27T05:32:46.854Z,100457.47
2023-04-27T05:35:33.460Z,100501.00
2023-04-27T05:38:20.094Z,100502.53
2023-04-27T05:41:06.202Z,100496.25
2023-04-27T05:43:53.619Z,100505.91
2023-04-27T05:46:39.930Z,100506.22
2023-04-27T05:49:26.783Z,100511.28
2023-04-27T05:52:12.635Z,100507.41
2023-04-27T05:54:59.269Z,100513.88
2023-04-27T05:57:47.673Z,100509.53
2023-04-27T06:00:36.928Z,100512.28
2023-04-27T06:03:22.878Z,100510.50
2023-04-27T06:06:09.170Z,100519.34
2023-04-27T06:08:55.022Z,100510.31
2023-04-27T06:11:41.353Z,100486.66
2023-04-27T06:14:27.715Z,100499.44
2023-04-27T06:17:14.093Z,100513.25
2023-04-27T06:19:59.773Z,100505.59
2023-04-27T06:22:46.923Z,100507.47
2023-04-27T06:25:32.718Z,100510.00
2023-04-27T06:28:18.792Z,100515.78
2023-04-27T06:31:05.057Z,100496.97
2023-04-27T06:33:51.133Z,100507.22
2023-04-27T06:36:37.072Z,100515.38
2023-04-27T06:39:23.010Z,100523.00
2023-04-27T06:42:08.799Z,100528.41
2023-04-27T06:44:56.425Z,100492.88
2023-04-27T06:47:42.516Z,100515.44
2023-04-27T06:50:29.613Z,100484.94
2023-04-27T06:53:17.948Z,100502.03
2023-04-27T06:56:04.100Z,100523.13
2023-04-27T06:58:50.351Z,100518.75
2023-04-27T07:01:37.147Z,100498.16
2023-04-27T07:04:23.748Z,100529.53
2023-04-27T07:07:10.124Z,100523.00
2023-04-27T07:09:56.241Z,100519.72
2023-04-27T07:12:42.860Z,100525.03
2023-04-27T07:15:28.973Z,100531.28
2023-04-27T07:18:15.163Z,100513.06
2023-04-27T07:21:02.059Z,100522.50
2023-04-27T07:23:47.921Z,100503.88
2023-04-27T07:26:33.505Z,100521.25
2023-04-27T07:29:27.101Z,100529.56
2023-04-27T07:32:13.588Z,100529.78
2023-04-27T07:35:00.231Z,100518.56
2023-04-27T07:37:45.983Z,100501.06
2023-04-27T07:40:32.921Z,100529.56
2023-04-27T07:43:19.423Z,100526.66
2023-04-27T07:46:05.858Z,100532.84
2023-04-27T07:48:52.442Z,100522.16
2023-04-27T07:51:39.785Z,100524.09
2023-04-27T07:54:26.376Z,100517.03
2023-04-27T07:57:12.702Z,100527.00
2023-04-27T07:59:58.786Z,100515.34
2023-04-27T08:02:44.905Z,100508.22
2023-04-27T08:05:31.464Z,100515.94
2023-04-27T08:08:18.570Z,100521.78
2023-04-27T08:11:04.529Z,100518.88
2023-04-27T08:13:50.706Z,100499.09
2023-04-27T08:16:37.131Z,100529.69
2023-04-27T08:19:23.561Z,100526.81
2023-04-27T08:22:09.587Z,100532.28
2023-04-27T08:24:55.988Z,100528.50
2023-04-27T08:27:42.093Z,100530.25
2023-04-27T08:30:28.438Z,100525.16
2023-04-27T08:33:14.592Z,100496.91
2023-04-27T08:36:00.901Z,100526.53
2023-04-27T08:38:46.563Z,100507.03
2023-04-27T08:41:32.964Z,100528.91
2023-04-27T08:44:19.182Z,100533.78
2023-04-27T08:47:05.579Z,100526.53
2023-04-27T08:49:51.592Z,100517.56
2023-04-27T08:52:37.824Z,100530.81
2023-04-27T08:55:24.311Z,100531.59
2023-04-27T08:58:10.334Z,100531.91
2023-04-27T09:00:56.593Z,100521.63
2023-04-27T09:03:42.821Z,100519.38
2023-04-27T09:06:33.703Z,100539.94
2023-04-27T09:09:24.048Z,100520.44
2023-04-27T09:12:20.556Z,100537.41
2023-04-27T09:15:08.585Z,100536.84
2023-04-27T09:17:56.662Z,100534.59
2023-04-27T09:20:48.228Z,100525.81
2023-04-27T09:23:36.474Z,100509.88
2023-04-27T09:26:27.618Z,100509.47
2023-04-27T09:29:13.837Z,100518.41
2023-04-27T09:32:00.588Z,100523.72
2023-04-27T09:34:46.539Z,100520.72
2023-04-27T09:37:32.697Z,100523.47
2023-04-27T09:40:23.802Z,100511.28
2023-04-27T09:43:10.699Z,100522.16
2023-04-27T09:45:57.365Z,100519.88
2023-04-27T09:48:43.436Z,100524.00
2023-04-27T09:51:29.656Z,100529.22
2023-04-27T09:54:16.224Z,100507.34
2023-04-27T09:57:41.095Z,100525.66
2023-04-27T10:00:43.047Z,100495.47
2023-04-27T10:03:47.647Z,100525.81
2023-04-27T10:06:46.000Z,100495.63
2023-04-27T10:09:42.683Z,100521.94
2023-04-27T10:12:36.814Z,100534.56
2023-04-27T10:15:27.357Z,100504.66
2023-04-27T10:18:13.673Z,100515.16
2023-04-27T10:21:12.458Z,100529.13
2023-04-27T10:24:08.690Z,100498.84
2023-04-27T10:27:01.602Z,100537.13
2023-04-27T10:29:48.344Z,100525.75
2023-04-27T10:32:34.681Z,100530.75
2023-04-27T10:35:22.238Z,100529.69
2023-04-27T10:38:18.122Z,100544.59
2023-04-27T10:41:07.295Z,100525.47
2023-04-27T10:43:53.119Z,100541.09
2023-04-27T10:46:50.539Z,100539.94
2023-04-27T10:49:36.149Z,100542.38
2023-04-27T10:52:22.726Z,100543.28
2023-04-27T10:55:20.360Z,100512.75
2023-04-27T10:58:07.029Z,100545.06
2023-04-27T11:00:53.261Z,100540.22
2023-04-27T11:03:39.635Z,100556.25
2023-04-27T11:06:25.984Z,100550.56
2023-04-27T11:09:12.522Z,100533.66
2023-04-27T11:11:58.395Z,100547.53
2023-04-27T11:14:44.748Z,100546.41
2023-04-27T11:17:32.306Z,100527.09
2023-04-27T11:20:25.637Z,100552.34
2023-04-27T11:23:11.741Z,100551.78
2023-04-27T11:25:57.888Z,100564.22
2023-04-27T11:28:46.262Z,100557.03
2023-04-27T11:31:43.871Z,100563.53
2023-04-27T11:34:34.501Z,100560.50
2023-04-27T11:37:27.725Z,100552.25
2023-04-27T11:40:14.250Z,100566.72
2023-04-27T11:43:03.226Z,100554.44
2023-04-27T11:45:49.324Z,100554.66
2023-04-27T11:48:37.634Z,100563.06
2023-04-27T11:51:25.111Z,100556.44
2023-04-27T11:54:11.742Z,100566.31
2023-04-27T11:57:08.290Z,100549.31
2023-04-27T11:59:55.185Z,100561.28
2023-04-27T12:02:43.259Z,100569.06
2023-04-27T12:05:30.038Z,100567.78
2023-04-27T12:08:17.220Z,100563.91
2023-04-27T12:11:03.953Z,100563.75
2023-04-27T12:13:50.000Z,100558.91
2023-04-27T12:16:36.712Z,100562.13
2023-04-27T12:19:25.545Z,100559.72
2023-04-27T12:22:12.047Z,100557.59
2023-04-27T12:24:57.851Z,100532.44
2023-04-27T12:27:47.410Z,100560.66
2023-04-27T12:30:33.230Z,100563.56
2023-04-27T12:33:19.659Z,100565.81
2023-04-27T12:36:05.940Z,100565.00
2023-04-27T12:38:51.910Z,100562.22
2023-04-27T12:41:38.138Z,100567.56
2023-04-27T12:44:24.804Z,100567.75
2023-04-27T12:47:13.512Z,100570.50
2023-04-27T12:50:03.934Z,100563.38
2023-04-27T12:52:50.566Z,100567.41
2023-04-27T12:55:37.434Z,100575.03
2023-04-27T12:58:23.194Z,100564.38
2023-04-27T13:01:14.848Z,100569.41
2023-04-27T13:04:03.084Z,100557.63
2023-04-27T13:06:49.377Z,100562.63
2023-04-27T13:09:36.290Z,100560.63
2023-04-27T13:12:22.588Z,100576.88
2023-04-27T13:15:09.447Z,100576.53
2023-04-27T13:17:58.266Z,100583.94
2023-04-27T13:20:44.406Z,100563.66
2023-04-27T13:23:30.901Z,100577.91
2023-04-27T13:26:17.294Z,100584.03
2023-04-27T13:29:04.830Z,100588.41
2023-04-27T13:31:51.611Z,100535.19
2023-04-27T13:34:37.542Z,100578.91
2023-04-27T13:37:23.905Z,100579.53
2023-04-27T13:40:13.892Z,100580.78
2023-04-27T13:43:00.399Z,100584.47
2023-04-27T13:45:46.402Z,100587.66
2023-04-27T13:48:32.697Z,100596.41
2023-04-27T13:51:18.952Z,100598.53
2023-04-27T13:54:05.590Z,100566.94
2023-04-27T13:56:51.542Z,100595.22
2023-04-27T13:59:37.809Z,100572.84
2023-04-27T14:02:24.784Z,100590.91
2023-04-27T14:05:11.827Z,100546.22
2023-04-27T14:07:57.592Z,100594.16
2023-04-27T14:10:45.217Z,100599.66
2023-04-27T14:13:30.810Z,100594.66
2023-04-27T14:16:17.517Z,100582.06
2023-04-27T14:19:03.019Z,100593.84
2023-04-27T14:21:52.115Z,100560.59
2023-04-27T14:24:38.107Z,100588.03
2023-04-27T14:27:24.767Z,100556.41
2023-04-27T14:30:10.671Z,100586.38
2023-04-27T14:32:56.803Z,100571.22
2023-04-27T14:35:42.545Z,100606.34
2023-04-27T14:38:29.095Z,100616.59
2023-04-27T14:41:14.885Z,100601.84
2023-04-27T14:44:01.404Z,100589.25
2023-04-27T14:46:47.326Z,100614.72
2023-04-27T14:49:33.685Z,100612.47
2023-04-27T14:52:19.131Z,100610.34
2023-04-27T14:55:06.918Z,100612.41
2023-04-27T14:57:53.243Z,100608.59
2023-04-27T15:00:40.500Z,100617.47
2023-04-27T15:03:27.876Z,100607.41
2023-04-27T15:06:14.652Z,100600.13
2023-04-27T15:09:00.599Z,100613.41
2023-04-27T15:11:47.194Z,100610.59
2023-04-27T15:14:32.764Z,100596.28
2023-04-27T15:17:18.766Z,100608.44
2023-04-27T15:20:08.336Z,100611.94
2023-04-27T15:22:54.786Z,100590.03
2023-04-27T15:25:40.138Z,100623.03
2023-04-27T15:28:26.852Z,100613.78
2023-04-27T15:31:12.934Z,100615.41
2023-04-27T15:33:58.986Z,100629.97
2023-04-27T15:36:45.716Z,100620.91
2023-04-27T15:39:32.106Z,100618.03
2023-04-27T15:42:17.710Z,100622.31
2023-04-27T15:45:04.227Z,100623.94
2023-04-27T15:47:50.017Z,100620.56
2023-04-27T15:50:36.466Z,100586.75
2023-04-27T15:53:22.577Z,100625.06
2023-04-27T15:56:08.655Z,100619.91
2023-04-27T15:58:54.806Z,100624.44
2023-04-27T16:01:41.244Z,100603.78
2023-04-27T16:04:27.182Z,100616.03
2023-04-27T16:07:14.067Z,100613.78
2023-04-27T16:10:00.139Z,100619.28
2023-04-27T16:12:46.460Z,100615.00
2023-04-27T16:15:32.869Z,100618.34
2023-04-27T16:18:19.242Z,100617.97
2023-04-27T16:21:05.414Z,100617.16
2023-04-27T16:23:51.894Z,100606.78
2023-04-27T16:26:37.521Z,100594.41
2023-04-27T16:29:24.039Z,100605.66
2023-04-27T16:32:11.098Z,100604.97
2023-04-27T16:34:57.298Z,100614.00
2023-04-27T16:37:43.362Z,100602.03
2023-04-27T16:40:29.771Z,100603.16
2023-04-27T16:43:15.862Z,100617.09
2023-04-27T16:46:02.374Z,100598.28
2023-04-27T16:48:48.425Z,100616.66
2023-04-27T16:51:39.528Z,100614.25
2023-04-27T16:54:25.186Z,100614.75
2023-04-27T16:57:11.164Z,100619.13
2023-04-27T16:59:56.957Z,100615.38
2023-04-27T17:02:43.955Z,100574.03
2023-04-27T17:05:29.956Z,100626.34
2023-04-27T17:08:17.103Z,100626.34
2023-04-27T17:11:08.766Z,100624.63
2023-04-27T17:13:55.316Z,100638.13
2023-04-27T17:16:41.100Z,100616.50
2023-04-27T17:19:28.633Z,100635.81
2023-04-27T17:22:14.961Z,100623.72
2023-04-27T17:25:01.338Z,100590.09
2023-04-27T17:27:47.238Z,100625.06
2023-04-27T17:30:33.891Z,100613.56
2023-04-27T17:33:19.789Z,100631.97
2023-04-27T17:36:09.225Z,100586.75
2023-04-27T17:38:55.114Z,100603.59
2023-04-27T17:41:42.123Z,100627.41
2023-04-27T17:44:27.841Z,100633.41
2023-04-27T17:47:14.283Z,100594.38
2023-04-27T17:50:00.085Z,100621.81
2023-04-27T17:52:47.660Z,100630.78
2023-04-27T17:55:33.717Z,100634.03
2023-04-27T17:58:20.187Z,100628.53
2023-04-27T18:01:09.133Z,100622.09
2023-04-27T18:03:55.825Z,100588.91
2023-04-27T18:06:41.636Z,100633.19
2023-04-27T18:09:31.536Z,100638.69
2023-04-27T18:12:18.679Z,100632.28
2023-04-27T18:15:08.540Z,100642.66
2023-04-27T18:17:56.288Z,100647.34
2023-04-27T18:20:45.024Z,100637.06
2023-04-27T18:23:31.002Z,100598.09
2023-04-27T18:26:17.410Z,100654.34
2023-04-27T18:29:03.621Z,100659.31
2023-04-27T18:31:50.086Z,100653.63
2023-04-27T18:34:36.819Z,100634.50
2023-04-27T18:37:23.168Z,100661.34
2023-04-27T18:40:09.639Z,100640.50
2023-04-27T18:42:55.770Z,100660.09
2023-04-27T18:45:41.828Z,100657.97
2023-04-27T18:48:28.155Z,100617.69
2023-04-27T18:51:13.821Z,100661.81
2023-04-27T18:53:59.953Z,100656.22
2023-04-27T18:56:50.706Z,100640.03
2023-04-27T18:59:38.602Z,100681.63
2023-04-27T19:02:26.029Z,100681.91
2023-04-27T19:05:13.713Z,100686.28
2023-04-27T19:07:59.909Z,100684.97
2023-04-27T19:10:46.867Z,100683.34
2023-04-27T19:13:32.586Z,100669.91
2023-04-27T19:16:19.068Z,100692.97
2023-04-27T19:19:05.438Z,100686.78
2023-04-27T19:21:51.230Z,100648.31
2023-04-27T19:24:36.680Z,100688.00
2023-04-27T19:27:22.720Z,100661.13
2023-04-27T19:30:09.473Z,100696.50
2023-04-27T19:32:55.921Z,100666.19
2023-04-27T19:35:42.057Z,100677.34
2023-04-27T19:38:28.519Z,100666.53
2023-04-27T19:41:14.207Z,100715.00
2023-04-27T19:44:00.719Z,100689.34
2023-04-27T19:46:46.500Z,100704.66
2023-04-27T19:49:33.225Z,100713.97
2023-04-27T19:52:18.764Z,100700.38
2023-04-27T19:55:05.772Z,100717.81
2023-04-27T19:57:52.315Z,100697.53
2023-04-27T20:00:38.058Z,100700.47
2023-04-27T20:03:24.325Z,100703.53
2023-04-27T20:06:11.352Z,100682.84
2023-04-27T20:08:57.329Z,100711.66
2023-04-27T20:11:44.223Z,100722.31
2023-04-27T20:14:31.317Z,100667.44
2023-04-27T20:17:17.524Z,100694.31
2023-04-27T20:20:03.923Z,100691.84
2023-04-27T20:22:50.553Z,100661.50
2023-04-27T20:25:36.417Z,100725.44
2023-04-27T20:28:25.045Z,100723.31
2023-04-27T20:31:12.665Z,100712.47
2023-04-27T20:33:58.983Z,100721.16
2023-04-27T20:36:45.166Z,100729.63
2023-04-27T20:39:31.582Z,100681.34
2023-04-27T20:42:17.791Z,100721.78
2023-04-27T20:45:05.638Z,100694.91
2023-04-27T20:47:52.283Z,100715.81
2023-04-27T20:50:39.505Z,100715.56
2023-04-27T20:53:26.255Z,100708.81
2023-04-27T20:56:12.847Z,100720.84
2023-04-27T20:58:59.296Z,100703.41
2023-04-27T21:01:45.916Z,100727.72
2023-04-27T21:04:32.065Z,100732.53
2023-04-27T21:07:18.035Z,100726.09
2023-04-27T21:10:06.644Z,100712.16
2023-04-27T21:12:53.211Z,100722.47
2023-04-27T21:15:39.151Z,100712.97
2023-04-27T21:18:30.415Z,100722.47
2023-04-27T21:21:16.467Z,100727.41
2023-04-27T21:24:07.904Z,100733.19
2023-04-27T21:27:04.874Z,100724.13
2023-04-27T21:29:51.029Z,100719.78
2023-04-27T21:32:36.660Z,100695.72
2023-04-27T21:35:22.925Z,100716.00
2023-04-27T21:38:08.577Z,100720.44
2023-04-27T21:40:54.284Z,100677.78
2023-04-27T21:43:42.158Z,100713.13
2023-04-27T21:46:29.432Z,100724.53
2023-04-27T21:49:15.306Z,100705.03
2023-04-27T21:52:01.439Z,100727.34
2023-04-27T21:54:47.171Z,100729.84
2023-04-27T21:57:33.213Z,100724.88
2023-04-27T22:00:19.115Z,100710.00
2023-04-27T22:03:06.018Z,100716.50
2023-04-27T22:05:52.860Z,100724.16
2023-04-27T22:08:39.213Z,100679.66
2023-04-27T22:11:25.421Z,100720.66
2023-04-27T22:14:11.741Z,100725.91
2023-04-27T22:16:58.527Z,100734.59
2023-04-27T22:19:44.573Z,100728.72
2023-04-27T22:22:30.692Z,100733.63
2023-04-27T22:25:16.710Z,100741.19
2023-04-27T22:28:02.636Z,100739.75
2023-04-27T22:30:48.549Z,100733.03
2023-04-27T22:33:34.045Z,100695.22
2023-04-27T22:36:20.335Z,100741.56
2023-04-27T22:39:07.236Z,100734.06
2023-04-27T22:41:53.145Z,100716.06
2023-04-27T22:44:38.721Z,100742.94
2023-04-27T22:47:25.572Z,100740.19
2023-04-27T22:50:12.346Z,100736.59
2023-04-27T22:52:58.508Z,100729.44
2023-04-27T22:55:44.566Z,100743.84
2023-04-27T22:58:30.939Z,100706.81
2023-04-27T23:01:16.856Z,100724.81
2023-04-27T23:04:03.150Z,100729.91
2023-04-27T23:06:49.187Z,100708.09
2023-04-27T23:09:35.316Z,100733.81
2023-04-27T23:12:20.881Z,100739.78
2023-04-27T23:15:08.061Z,100696.19
2023-04-27T23:17:54.213Z,100718.28
2023-04-27T23:20:40.712Z,100728.59
2023-04-27T23:23:26.516Z,100727.50
2023-04-27T23:26:16.527Z,100709.50
2023-04-27T23:29:02.808Z,100685.25
2023-04-27T23:31:48.784Z,100727.38
2023-04-27T23:34:34.891Z,100701.03
2023-04-27T23:37:22.532Z,100725.75
2023-04-27T23:40:08.654Z,100709.44
2023-04-27T23:42:54.635Z,100727.69
2023-04-27T23:45:40.935Z,100717.91
2023-04-27T23:48:27.474Z,100720.38
2023-04-27T23:51:13.238Z,100730.16
2023-04-27T23:53:59.277Z,100689.41
2023-04-27T23:56:45.165Z,100718.47
2023-04-27T23:59:35.521Z,100718.16
